Ship Status Report: callsign CQHT

sailwx.info

Track history (hours):
 
Tides and Currents Weather Stations Pressure Air Temp Water Temp Dewpoint Dewpoint Depression Visibility Wind Speed Wind Dir Waves Ship Positions

Callsign CQHT (name unknown)

Last reported at 2018-Mar-26 09:28 UTC. Time now 2018-Jun-24 22:34 UTC.
Position N 53°35' E 008°32'.
Warning: this ship's position is months out of date.

Date/timePositionNaut miles runAvg speedWind from/ knotsBaromVisibWave heightAir tempDewpointWater temp
2018-Mar-26 09:28N 53°35' E 008°32'0 0.0
2018-Mar-26 08:58N 53°35' E 008°32'0 0.0
2018-Mar-26 08:28N 53°35' E 008°32'0 0.0
2018-Mar-26 07:58N 53°35' E 008°32'0 0.0
2018-Mar-26 07:28N 53°35' E 008°32'0 0.0
2018-Mar-26 06:58N 53°35' E 008°32'0 0.0
2018-Mar-26 06:28N 53°35' E 008°32'0 0.0
2018-Mar-26 05:58N 53°35' E 008°32'0 0.0
2018-Mar-26 05:28N 53°35' E 008°32'0 0.0
2018-Mar-26 04:58N 53°35' E 008°32'0 0.0
2018-Mar-26 04:28N 53°35' E 008°32'0 0.0
2018-Mar-26 03:58N 53°35' E 008°32'0 0.0
2018-Mar-26 03:28N 53°35' E 008°32'0 0.0
2018-Mar-26 02:58N 53°35' E 008°32'0 0.0
2018-Mar-26 02:28N 53°35' E 008°32'0 0.0
2018-Mar-26 01:58N 53°35' E 008°32'0 0.0
2018-Mar-26 01:28N 53°35' E 008°32'0 0.3
2018-Mar-26 01:01N 53°35' E 008°32'2 3.5
2018-Mar-26 00:30N 53°36' E 008°30'4 8.5
2018-Mar-26 00:00N 53°39' E 008°25'714.2
2018-Mar-25 23:30N 53°43' E 008°16'714.3
2018-Mar-25 23:00N 53°49' E 008°07'714.4
2018-Mar-25 22:30N 53°51' E 007°56'510.6
2018-Mar-25 22:00N 53°52' E 007°47'510.0
2018-Mar-25 21:30N 53°54' E 007°39'713.3
2018-Mar-25 21:01N 53°54' E 007°28'6816.6
2018-Mar-25 16:57N 53°36' E 005°38'817.1
2018-Mar-25 16:30N 53°34' E 005°25'916.7
2018-Mar-25 15:58N 53°30' E 005°11'817.3
2018-Mar-25 15:30N 53°28' E 004°59'1616.3
2018-Mar-25 14:30N 53°17' E 004°38'917.4
2018-Mar-25 13:59N 53°09' E 004°31'1515.6
2018-Mar-25 13:00N 52°55' E 004°19'612.5
2018-Mar-25 12:30N 52°50' E 004°15'712.8
2018-Mar-25 11:59N 52°44' E 004°08'712.7
2018-Mar-25 11:29N 52°39' E 004°03'913.1
2018-Mar-25 10:49N 52°31' E 003°56'413.0
2018-Mar-25 10:30N 52°27' E 003°54'713.6
2018-Mar-25 10:00N 52°21' E 003°52'2211.3
2018-Mar-25 08:00N 51°59' E 004°03'2 3.3
2018-Mar-25 07:30N 51°58' E 004°03'0 0.9
2018-Mar-25 06:59N 51°57' E 004°03'0 0.0
2018-Mar-25 06:29N 51°57' E 004°03'0 0.0
2018-Mar-25 05:59N 51°57' E 004°03'0 0.0
2018-Mar-25 05:29N 51°57' E 004°03'0 0.0
2018-Mar-25 04:59N 51°57' E 004°03'0 0.0
2018-Mar-25 04:29N 51°57' E 004°03'0 0.0
2018-Mar-25 03:59N 51°57' E 004°03'0 0.0
2018-Mar-25 03:29N 51°57' E 004°03'0 0.0
2018-Mar-25 02:59N 51°57' E 004°03'0 0.0
2018-Mar-25 02:29N 51°57' E 004°03'0 0.0
2018-Mar-25 02:00N 51°57' E 004°03'0 0.0
2018-Mar-25 01:29N 51°57' E 004°03'0 0.0
2018-Mar-25 00:59N 51°57' E 004°03'0 0.0
2018-Mar-25 00:29N 51°57' E 004°03'0 0.0
2018-Mar-24 23:59N 51°57' E 004°03'0 0.0
2018-Mar-24 23:29N 51°57' E 004°02'0 0.0
2018-Mar-24 22:59N 51°57' E 004°03'0 0.0
2018-Mar-24 22:28N 51°57' E 004°03'0 0.0
2018-Mar-24 21:58N 51°57' E 004°03'0 0.0
2018-Mar-24 21:28N 51°57' E 004°03'0 0.0
2018-Mar-24 20:58N 51°57' E 004°03'0 0.0
2018-Mar-24 20:31N 51°57' E 004°02'0 0.0
2018-Mar-24 20:01N 51°57' E 004°03'0 0.0
2018-Mar-24 19:31N 51°57' E 004°03'0 0.0
2018-Mar-24 19:01N 51°57' E 004°03'0 0.0
2018-Mar-24 18:31N 51°57' E 004°03'0 0.0
2018-Mar-24 18:01N 51°57' E 004°03'0 0.0
2018-Mar-24 17:31N 51°57' E 004°03'0 0.0
2018-Mar-24 17:01N 51°57' E 004°03'0 0.0
2018-Mar-24 16:31N 51°57' E 004°03'0 0.0
2018-Mar-24 16:01N 51°57' E 004°03'0 0.0
2018-Mar-24 15:28N 51°57' E 004°03'0 0.0
2018-Mar-24 14:58N 51°57' E 004°03'0 0.0
2018-Mar-24 14:31N 51°57' E 004°03'0 0.0
2018-Mar-24 14:01N 51°57' E 004°03'1 1.9
2018-Mar-24 13:31N 51°58' E 004°04'1 2.5
2018-Mar-24 13:01N 51°59' E 004°04'5 9.6
2018-Mar-24 12:30N 52°00' E 003°56'5 9.6
2018-Mar-24 12:00N 51°60' E 003°49'5 9.4
2018-Mar-24 11:30N 51°58' E 003°41'510.4
2018-Mar-24 11:00N 51°56' E 003°34'0 0.2
2018-Mar-24 10:01N 51°55' E 003°34'0 0.2
2018-Mar-24 09:43N 51°55' E 003°34'0 0.2
2018-Mar-24 09:25N 51°55' E 003°34'0 0.0
2018-Mar-24 08:25N 51°55' E 003°34'0 0.0
2018-Mar-24 07:43N 51°55' E 003°34'0 0.0
2018-Mar-24 07:25N 51°55' E 003°34'0 0.0
2018-Mar-24 06:10N 51°55' E 003°34'0 0.0
2018-Mar-24 05:55N 51°55' E 003°34'0 0.0
2018-Mar-24 05:28N 51°55' E 003°34'0 0.0
2018-Mar-24 04:52N 51°55' E 003°34'0 0.1
2018-Mar-24 04:22N 51°55' E 003°34'0 0.3
2018-Mar-24 03:52N 51°55' E 003°34'0 0.1
2018-Mar-24 02:55N 51°55' E 003°34'0 0.0
2018-Mar-24 02:25N 51°55' E 003°34'0 0.0
2018-Mar-24 01:58N 51°55' E 003°34'0 0.0
2018-Mar-24 01:28N 51°55' E 003°34'0 0.0
2018-Mar-24 00:55N 51°55' E 003°34'0 0.0
2018-Mar-24 00:28N 51°55' E 003°34'0 0.0
2018-Mar-23 23:58N 51°55' E 003°34'0 0.1
2018-Mar-23 23:25N 51°55' E 003°34'0 0.3
2018-Mar-23 22:55N 51°55' E 003°34'0 0.1
2018-Mar-23 22:14N 51°55' E 003°34'1 3.7
2018-Mar-23 21:59N 51°56' E 003°33'610.8
2018-Mar-23 21:27N 51°54' E 003°23'714.0
2018-Mar-23 20:56N 51°48' E 003°18'512.1
2018-Mar-23 20:30N 51°43' E 003°15'816.5
2018-Mar-23 20:01N 51°36' E 003°10'917.0
2018-Mar-23 19:31N 51°29' E 003°02'5 9.3
2018-Mar-23 19:01N 51°24' E 003°05'814.9
2018-Mar-23 18:30N 51°25' E 003°17'714.9
2018-Mar-23 18:00N 51°25' E 003°29'510.6
2018-Mar-23 17:30N 51°26' E 003°37'510.3
2018-Mar-23 17:00N 51°23' E 003°43'611.1
2018-Mar-23 16:30N 51°21' E 003°52'510.1
2018-Mar-23 16:00N 51°24' E 003°57'3 6.1
2018-Mar-23 15:30N 51°24' E 004°02'5 9.5
2018-Mar-23 15:00N 51°23' E 004°10'4 8.3
2018-Mar-23 14:30N 51°21' E 004°15'3 5.2
2018-Mar-23 13:57N 51°18' E 004°16'1 2.2
2018-Mar-23 13:29N 51°17' E 004°15'0 0.1
2018-Mar-23 12:59N 51°17' E 004°15'0 0.0
2018-Mar-23 12:29N 51°17' E 004°15'0 0.0
2018-Mar-23 11:53N 51°17' E 004°15'0 0.0
2018-Mar-23 11:26N 51°17' E 004°15'0 0.0
2018-Mar-23 10:59N 51°17' E 004°15'0 0.0
2018-Mar-23 10:29N 51°17' E 004°15'0 0.0
2018-Mar-23 09:59N 51°17' E 004°15'0 0.0
2018-Mar-23 09:29N 51°17' E 004°15'0 0.0
2018-Mar-23 08:56N 51°17' E 004°15'0 0.0
2018-Mar-23 08:29N 51°17' E 004°15'0 0.0
2018-Mar-23 07:59N 51°17' E 004°15'0 0.0
2018-Mar-23 07:26N 51°17' E 004°15'0 0.0
2018-Mar-23 06:59N 51°17' E 004°15'0 0.0
2018-Mar-23 06:29N 51°17' E 004°15'0 0.0
2018-Mar-23 05:59N 51°17' E 004°15'0 0.0
2018-Mar-23 05:29N 51°17' E 004°15'0 0.0
2018-Mar-23 04:59N 51°17' E 004°15'0 0.0
2018-Mar-23 04:29N 51°17' E 004°15'0 0.0
2018-Mar-23 03:59N 51°17' E 004°15'0 0.0
2018-Mar-23 03:29N 51°17' E 004°15'0 0.0
2018-Mar-23 02:59N 51°17' E 004°15'0 0.0
2018-Mar-23 02:29N 51°17' E 004°15'0 0.0
2018-Mar-23 01:59N 51°17' E 004°15'0 0.0
2018-Mar-23 01:29N 51°17' E 004°15'0 0.0
2018-Mar-23 00:59N 51°17' E 004°15'0 0.0
2018-Mar-23 00:29N 51°17' E 004°15'0 0.0
2018-Mar-22 23:59N 51°17' E 004°15'0 0.0
2018-Mar-22 23:29N 51°17' E 004°15'0 0.0
2018-Mar-22 22:59N 51°17' E 004°15'0 0.0
2018-Mar-22 22:29N 51°17' E 004°15'0 0.0
2018-Mar-22 21:59N 51°17' E 004°15'0 0.0
2018-Mar-22 21:29N 51°17' E 004°15'0 0.0
2018-Mar-22 20:56N 51°17' E 004°15'0 0.0
2018-Mar-22 20:29N 51°17' E 004°15'0 0.0
2018-Mar-22 19:59N 51°17' E 004°15'0 0.0
2018-Mar-22 19:29N 51°17' E 004°15'0 0.0
2018-Mar-22 18:59N 51°17' E 004°15'0 0.0
2018-Mar-22 18:29N 51°17' E 004°15'0 0.0
2018-Mar-22 17:59N 51°17' E 004°15'0 0.0
2018-Mar-22 17:29N 51°17' E 004°15'0 0.0
2018-Mar-22 16:59N 51°17' E 004°15'0 0.0
2018-Mar-22 16:29N 51°17' E 004°15'0 0.0
2018-Mar-22 15:58N 51°17' E 004°15'0 0.0
2018-Mar-22 15:28N 51°17' E 004°15'0 0.0
2018-Mar-22 14:58N 51°17' E 004°15'0 0.0
2018-Mar-22 14:22N 51°17' E 004°15'0 0.0
2018-Mar-22 13:58N 51°17' E 004°15'0 0.0
2018-Mar-22 13:28N 51°17' E 004°15'0 0.0
2018-Mar-22 12:59N 51°17' E 004°15'0 0.0
2018-Mar-22 12:29N 51°17' E 004°15'0 0.0
2018-Mar-22 11:59N 51°17' E 004°15'0 0.0
2018-Mar-22 11:29N 51°17' E 004°15'0 0.0
2018-Mar-22 10:59N 51°17' E 004°15'0 0.0
2018-Mar-22 10:26N 51°17' E 004°15'0 0.0
2018-Mar-22 10:00N 51°17' E 004°15'0 0.0
2018-Mar-22 09:30N 51°17' E 004°15'0 0.0
2018-Mar-22 09:00N 51°17' E 004°15'0 0.0
2018-Mar-22 08:30N 51°17' E 004°15'0 0.0
2018-Mar-22 08:00N 51°17' E 004°15'0 0.0
2018-Mar-22 07:27N 51°17' E 004°15'0 0.0
2018-Mar-22 06:59N 51°17' E 004°15'0 0.0
2018-Mar-22 06:29N 51°17' E 004°15'0 0.0
2018-Mar-22 06:00N 51°17' E 004°15'0 0.0
2018-Mar-22 05:30N 51°17' E 004°15'0 0.0
2018-Mar-22 05:00N 51°17' E 004°15'0 0.0
2018-Mar-22 04:30N 51°17' E 004°15'0 0.0
2018-Mar-22 03:57N 51°17' E 004°15'0 0.0
2018-Mar-22 03:30N 51°17' E 004°15'1 1.7
2018-Mar-22 03:00N 51°18' E 004°16'3 6.9
2018-Mar-22 02:30N 51°21' E 004°14'4 8.4
2018-Mar-22 02:00N 51°22' E 004°08'510.7
2018-Mar-22 01:30N 51°26' E 004°01'713.0
2018-Mar-22 01:01N 51°21' E 003°54'612.6
2018-Mar-22 00:30N 51°23' E 003°44'611.0
2018-Mar-22 00:00N 51°26' E 003°37'611.5
2018-Mar-21 23:30N 51°25' E 003°28'713.9
2018-Mar-21 23:01N 51°24' E 003°17'713.1
2018-Mar-21 22:31N 51°24' E 003°06'713.4
2018-Mar-21 22:00N 51°25' E 002°55'612.4
2018-Mar-21 21:30N 51°24' E 002°46'3 7.0
2018-Mar-21 21:00N 51°22' E 002°41'2 4.2
2018-Mar-21 20:29N 51°24' E 002°39'1 0.9
2018-Mar-21 19:51N 51°25' E 002°39'0 0.0
2018-Mar-21 19:29N 51°25' E 002°39'0 0.0
2018-Mar-21 19:00N 51°25' E 002°39'0 0.0
2018-Mar-21 18:29N 51°25' E 002°39'0 0.0
2018-Mar-21 17:53N 51°25' E 002°39'0 0.0
2018-Mar-21 17:29N 51°25' E 002°39'0 0.0
2018-Mar-21 17:00N 51°25' E 002°39'0 0.0
2018-Mar-21 16:27N 51°25' E 002°39'0 0.0
2018-Mar-21 15:59N 51°25' E 002°39'0 0.0
2018-Mar-21 15:30N 51°25' E 002°39'0 0.0
2018-Mar-21 15:00N 51°25' E 002°39'0 0.1
2018-Mar-21 14:26N 51°25' E 002°39'0 0.1
2018-Mar-21 13:54N 51°25' E 002°40'0 0.1
2018-Mar-21 13:30N 51°25' E 002°40'0 0.2
2018-Mar-21 13:00N 51°24' E 002°39'0 0.2
2018-Mar-21 12:30N 51°24' E 002°39'0 0.1
2018-Mar-21 12:00N 51°24' E 002°39'0 0.0
2018-Mar-21 11:22N 51°24' E 002°39'0 0.0
2018-Mar-21 10:58N 51°24' E 002°39'0 0.0
2018-Mar-21 10:29N 51°24' E 002°39'0 0.0
2018-Mar-21 10:00N 51°24' E 002°39'0 0.0
2018-Mar-21 09:30N 51°24' E 002°39'0 0.0
2018-Mar-21 09:00N 51°24' E 002°39'0 0.1
2018-Mar-21 08:30N 51°25' E 002°39'0 0.1
2018-Mar-21 07:58N 51°24' E 002°39'0 0.3
2018-Mar-21 07:20N 51°25' E 002°40'0 0.2
2018-Mar-21 06:59N 51°25' E 002°40'0 0.1
2018-Mar-21 06:26N 51°25' E 002°40'0 0.0
2018-Mar-21 06:00N 51°25' E 002°40'0 0.0
2018-Mar-21 05:23N 51°25' E 002°40'0 0.0
2018-Mar-21 04:51N 51°25' E 002°40'0 0.0
2018-Mar-21 04:21N 51°25' E 002°40'0 0.0
2018-Mar-21 03:59N 51°25' E 002°40'0 0.0
2018-Mar-21 03:30N 51°25' E 002°40'0 0.0
2018-Mar-21 03:00N 51°25' E 002°40'0 0.1
2018-Mar-21 02:28N 51°25' E 002°40'0 0.3
2018-Mar-21 02:00N 51°24' E 002°40'0 0.3
2018-Mar-21 01:27N 51°24' E 002°39'0 0.0
2018-Mar-21 00:57N 51°24' E 002°39'0 0.2
2018-Mar-21 00:26N 51°24' E 002°39'0 0.0
2018-Mar-20 23:59N 51°24' E 002°39'0 0.0
2018-Mar-20 23:30N 51°24' E 002°39'0 0.0
2018-Mar-20 23:00N 51°24' E 002°39'0 0.0
2018-Mar-20 22:30N 51°24' E 002°39'0 0.0
2018-Mar-20 22:00N 51°24' E 002°39'0 0.0
2018-Mar-20 21:30N 51°24' E 002°39'0 0.0
2018-Mar-20 20:58N 51°24' E 002°39'0 0.0
2018-Mar-20 20:22N 51°24' E 002°39'0 0.0
2018-Mar-20 20:00N 51°24' E 002°39'0 0.1
2018-Mar-20 19:29N 51°24' E 002°39'0 0.1
2018-Mar-20 18:56N 51°24' E 002°39'0 0.1
2018-Mar-20 18:23N 51°24' E 002°39'0 0.4
2018-Mar-20 18:00N 51°24' E 002°40'0 0.2
2018-Mar-20 17:27N 51°25' E 002°40'0 0.1
2018-Mar-20 17:00N 51°25' E 002°40'0 0.1
2018-Mar-20 16:27N 51°25' E 002°40'0 0.1
2018-Mar-20 15:59N 51°25' E 002°40'0 0.1
2018-Mar-20 15:28N 51°25' E 002°40'0 0.1
2018-Mar-20 14:58N 51°24' E 002°39'0 0.1
2018-Mar-20 14:30N 51°24' E 002°39'0 0.1
2018-Mar-20 13:59N 51°24' E 002°39'0 0.1
2018-Mar-20 13:30N 51°24' E 002°39'0 0.0
2018-Mar-20 12:56N 51°24' E 002°39'0 0.1
2018-Mar-20 12:29N 51°24' E 002°39'0 0.0
2018-Mar-20 11:59N 51°24' E 002°39'0 0.0
2018-Mar-20 11:30N 51°24' E 002°39'0 0.0
2018-Mar-20 11:00N 51°24' E 002°39'0 0.0
2018-Mar-20 10:26N 51°24' E 002°39'0 0.0
2018-Mar-20 10:00N 51°24' E 002°39'0 0.0
2018-Mar-20 09:30N 51°24' E 002°39'0 0.0
2018-Mar-20 08:59N 51°24' E 002°39'0 0.2
2018-Mar-20 08:30N 51°24' E 002°39'2 3.9
2018-Mar-20 07:58N 51°24' E 002°36'3 6.7
2018-Mar-20 07:30N 51°22' E 002°32'4 7.5
2018-Mar-20 07:00N 51°21' E 002°26'4 8.3
2018-Mar-20 06:30N 51°19' E 002°20'4 8.9
2018-Mar-20 06:00N 51°17' E 002°14'5 9.6
2018-Mar-20 05:30N 51°15' E 002°07'5 9.8
2018-Mar-20 05:00N 51°12' E 002°00'510.0
2018-Mar-20 04:30N 51°09' E 001°54'510.2
2018-Mar-20 04:00N 51°06' E 001°47'611.0
2018-Mar-20 03:30N 51°02' E 001°42'611.8
2018-Mar-20 03:00N 50°58' E 001°35'611.5
2018-Mar-20 02:27N 50°53' E 001°29'510.9
2018-Mar-20 02:00N 50°48' E 001°26'510.8
2018-Mar-20 01:30N 50°43' E 001°23'710.2
2018-Mar-20 00:50N 50°38' E 001°17'510.1
2018-Mar-20 00:23N 50°35' E 001°11'710.3
2018-Mar-19 23:45N 50°31' E 001°03'10 9.8
2018-Mar-19 22:43N 50°27' E 000°48'210.3
2018-Mar-19 22:30N 50°27' E 000°45'510.3
2018-Mar-19 21:58N 50°25' E 000°37'710.1
2018-Mar-19 21:17N 50°23' E 000°26'3 9.8
2018-Mar-19 21:01N 50°22' E 000°22'5 9.5
2018-Mar-19 20:30N 50°21' E 000°15'5 9.0
2018-Mar-19 20:00N 50°20' E 000°08'4 8.5
2018-Mar-19 19:30N 50°19' E 000°02'5 9.2
2018-Mar-19 19:00N 50°18' W 000°05'510.8
2018-Mar-19 18:30N 50°16' W 000°13'510.5
2018-Mar-19 18:00N 50°15' W 000°21'510.2
2018-Mar-19 17:28N 50°13' W 000°29'5 9.8
2018-Mar-19 16:55N 50°12' W 000°38'4 9.6
2018-Mar-19 16:30N 50°11' W 000°44'5 9.1
2018-Mar-19 15:59N 50°10' W 000°51'4 8.8
2018-Mar-19 15:30N 50°09' W 000°57'4 8.3
2018-Mar-19 15:00N 50°08' W 001°04'4 8.1
2018-Mar-19 14:30N 50°07' W 001°10'4 8.5
2018-Mar-19 14:01N 50°06' W 001°16'4 8.9
2018-Mar-19 13:30N 50°05' W 001°23'5 9.5
2018-Mar-19 13:00N 50°04' W 001°30'510.3
2018-Mar-19 12:29N 50°02' W 001°38'511.1
2018-Mar-19 12:00N 50°01' W 001°46'611.9
2018-Mar-19 11:30N 50°00' W 001°55'612.7
2018-Mar-19 11:00N 49°59' W 002°05'713.2
2018-Mar-19 10:30N 49°57' W 002°15'813.4
2018-Mar-19 09:52N 49°55' W 002°28'613.2
2018-Mar-19 09:25N 49°54' W 002°37'513.0
2018-Mar-19 09:00N 49°52' W 002°45'612.9
2018-Mar-19 08:30N 49°51' W 002°55'612.7
2018-Mar-19 08:00N 49°49' W 003°04'612.7
2018-Mar-19 07:30N 49°48' W 003°14'712.6
2018-Mar-19 06:58N 49°46' W 003°24'812.5
2018-Mar-19 06:21N 49°45' W 003°36'7712.1
2018-Mar-19 00:00N 49°24' W 005°30'8814.6 050 / 401004.8 2.2 6.5 3.310.0
2018-Mar-18 18:00N 48°54' W 007°36'10417.3 350 / 131007.110.8 9.1 2.210.0
2018-Mar-18 12:00N 48°24' W 010°06'9515.8 360 / 221009.210.8 8.9-2.711.0
2018-Mar-18 06:00N 48°00' W 012°24'20417.0 040 / 141007.810.8 10.8 2.112.0
2018-Mar-17 18:00N 47°00' W 017°12'9916.5 010 / 71005.710.8 16.0 6.212.0
2018-Mar-17 12:00N 46°30' W 019°30'20517.1 180 / 51003.410.8 14.3 0.913.0
2018-Mar-17 00:00N 45°30' W 024°12'9215.3 180 / 101003.7 11.0 2.613.0
2018-Mar-16 18:00N 45°06' W 026°18'9415.7 1005.810.8 13.2 4.214.0
2018-Mar-16 12:00N 44°36' W 028°24'   290 / 71009.810.8 13.7 6.514.0
Track history (hours):
 
Tides and Currents Weather Stations Pressure Air Temp Water Temp Dewpoint Dewpoint Depression Visibility Wind Speed Wind Dir Waves Ship Positions

Callsign CQHT (name unknown)

Last reported at 2018-Mar-26 09:28 UTC. Time now 2018-Jun-24 22:34 UTC.
Position N 53°35' E 008°32'.
Warning: this ship's position is months out of date.

Date/timePositionNaut miles runAvg speedWind from/ knotsBaromVisibWave heightAir tempDewpointWater temp
2018-Mar-26 09:28N 53°35' E 008°32'0 0.0
2018-Mar-26 08:58N 53°35' E 008°32'0 0.0
2018-Mar-26 08:28N 53°35' E 008°32'0 0.0
2018-Mar-26 07:58N 53°35' E 008°32'0 0.0
2018-Mar-26 07:28N 53°35' E 008°32'0 0.0
2018-Mar-26 06:58N 53°35' E 008°32'0 0.0
2018-Mar-26 06:28N 53°35' E 008°32'0 0.0
2018-Mar-26 05:58N 53°35' E 008°32'0 0.0
2018-Mar-26 05:28N 53°35' E 008°32'0 0.0
2018-Mar-26 04:58N 53°35' E 008°32'0 0.0
2018-Mar-26 04:28N 53°35' E 008°32'0 0.0
2018-Mar-26 03:58N 53°35' E 008°32'0 0.0
2018-Mar-26 03:28N 53°35' E 008°32'0 0.0
2018-Mar-26 02:58N 53°35' E 008°32'0 0.0
2018-Mar-26 02:28N 53°35' E 008°32'0 0.0
2018-Mar-26 01:58N 53°35' E 008°32'0 0.0
2018-Mar-26 01:28N 53°35' E 008°32'0 0.3
2018-Mar-26 01:01N 53°35' E 008°32'2 3.5
2018-Mar-26 00:30N 53°36' E 008°30'4 8.5
2018-Mar-26 00:00N 53°39' E 008°25'714.2
2018-Mar-25 23:30N 53°43' E 008°16'714.3
2018-Mar-25 23:00N 53°49' E 008°07'714.4
2018-Mar-25 22:30N 53°51' E 007°56'510.6
2018-Mar-25 22:00N 53°52' E 007°47'510.0
2018-Mar-25 21:30N 53°54' E 007°39'713.3
2018-Mar-25 21:01N 53°54' E 007°28'6816.6
2018-Mar-25 16:57N 53°36' E 005°38'817.1
2018-Mar-25 16:30N 53°34' E 005°25'916.7
2018-Mar-25 15:58N 53°30' E 005°11'817.3
2018-Mar-25 15:30N 53°28' E 004°59'1616.3
2018-Mar-25 14:30N 53°17' E 004°38'917.4
2018-Mar-25 13:59N 53°09' E 004°31'1515.6
2018-Mar-25 13:00N 52°55' E 004°19'612.5
2018-Mar-25 12:30N 52°50' E 004°15'712.8
2018-Mar-25 11:59N 52°44' E 004°08'712.7
2018-Mar-25 11:29N 52°39' E 004°03'913.1
2018-Mar-25 10:49N 52°31' E 003°56'413.0
2018-Mar-25 10:30N 52°27' E 003°54'713.6
2018-Mar-25 10:00N 52°21' E 003°52'2211.3
2018-Mar-25 08:00N 51°59' E 004°03'2 3.3
2018-Mar-25 07:30N 51°58' E 004°03'0 0.9
2018-Mar-25 06:59N 51°57' E 004°03'0 0.0
2018-Mar-25 06:29N 51°57' E 004°03'0 0.0
2018-Mar-25 05:59N 51°57' E 004°03'0 0.0
2018-Mar-25 05:29N 51°57' E 004°03'0 0.0
2018-Mar-25 04:59N 51°57' E 004°03'0 0.0
2018-Mar-25 04:29N 51°57' E 004°03'0 0.0
2018-Mar-25 03:59N 51°57' E 004°03'0 0.0
2018-Mar-25 03:29N 51°57' E 004°03'0 0.0
2018-Mar-25 02:59N 51°57' E 004°03'0 0.0
2018-Mar-25 02:29N 51°57' E 004°03'0 0.0
2018-Mar-25 02:00N 51°57' E 004°03'0 0.0
2018-Mar-25 01:29N 51°57' E 004°03'0 0.0
2018-Mar-25 00:59N 51°57' E 004°03'0 0.0
2018-Mar-25 00:29N 51°57' E 004°03'0 0.0
2018-Mar-24 23:59N 51°57' E 004°03'0 0.0
2018-Mar-24 23:29N 51°57' E 004°02'0 0.0
2018-Mar-24 22:59N 51°57' E 004°03'0 0.0
2018-Mar-24 22:28N 51°57' E 004°03'0 0.0
2018-Mar-24 21:58N 51°57' E 004°03'0 0.0
2018-Mar-24 21:28N 51°57' E 004°03'0 0.0
2018-Mar-24 20:58N 51°57' E 004°03'0 0.0
2018-Mar-24 20:31N 51°57' E 004°02'0 0.0
2018-Mar-24 20:01N 51°57' E 004°03'0 0.0
2018-Mar-24 19:31N 51°57' E 004°03'0 0.0
2018-Mar-24 19:01N 51°57' E 004°03'0 0.0
2018-Mar-24 18:31N 51°57' E 004°03'0 0.0
2018-Mar-24 18:01N 51°57' E 004°03'0 0.0
2018-Mar-24 17:31N 51°57' E 004°03'0 0.0
2018-Mar-24 17:01N 51°57' E 004°03'0 0.0
2018-Mar-24 16:31N 51°57' E 004°03'0 0.0
2018-Mar-24 16:01N 51°57' E 004°03'0 0.0
2018-Mar-24 15:28N 51°57' E 004°03'0 0.0
2018-Mar-24 14:58N 51°57' E 004°03'0 0.0
2018-Mar-24 14:31N 51°57' E 004°03'0 0.0
2018-Mar-24 14:01N 51°57' E 004°03'1 1.9
2018-Mar-24 13:31N 51°58' E 004°04'1 2.5
2018-Mar-24 13:01N 51°59' E 004°04'5 9.6
2018-Mar-24 12:30N 52°00' E 003°56'5 9.6
2018-Mar-24 12:00N 51°60' E 003°49'5 9.4
2018-Mar-24 11:30N 51°58' E 003°41'510.4
2018-Mar-24 11:00N 51°56' E 003°34'0 0.2
2018-Mar-24 10:01N 51°55' E 003°34'0 0.2
2018-Mar-24 09:43N 51°55' E 003°34'0 0.2
2018-Mar-24 09:25N 51°55' E 003°34'0 0.0
2018-Mar-24 08:25N 51°55' E 003°34'0 0.0
2018-Mar-24 07:43N 51°55' E 003°34'0 0.0
2018-Mar-24 07:25N 51°55' E 003°34'0 0.0
2018-Mar-24 06:10N 51°55' E 003°34'0 0.0
2018-Mar-24 05:55N 51°55' E 003°34'0 0.0
2018-Mar-24 05:28N 51°55' E 003°34'0 0.0
2018-Mar-24 04:52N 51°55' E 003°34'0 0.1
2018-Mar-24 04:22N 51°55' E 003°34'0 0.3
2018-Mar-24 03:52N 51°55' E 003°34'0 0.1
2018-Mar-24 02:55N 51°55' E 003°34'0 0.0
2018-Mar-24 02:25N 51°55' E 003°34'0 0.0
2018-Mar-24 01:58N 51°55' E 003°34'0 0.0
2018-Mar-24 01:28N 51°55' E 003°34'0 0.0
2018-Mar-24 00:55N 51°55' E 003°34'0 0.0
2018-Mar-24 00:28N 51°55' E 003°34'0 0.0
2018-Mar-23 23:58N 51°55' E 003°34'0 0.1
2018-Mar-23 23:25N 51°55' E 003°34'0 0.3
2018-Mar-23 22:55N 51°55' E 003°34'0 0.1
2018-Mar-23 22:14N 51°55' E 003°34'1 3.7
2018-Mar-23 21:59N 51°56' E 003°33'610.8
2018-Mar-23 21:27N 51°54' E 003°23'714.0
2018-Mar-23 20:56N 51°48' E 003°18'512.1
2018-Mar-23 20:30N 51°43' E 003°15'816.5
2018-Mar-23 20:01N 51°36' E 003°10'917.0
2018-Mar-23 19:31N 51°29' E 003°02'5 9.3
2018-Mar-23 19:01N 51°24' E 003°05'814.9
2018-Mar-23 18:30N 51°25' E 003°17'714.9
2018-Mar-23 18:00N 51°25' E 003°29'510.6
2018-Mar-23 17:30N 51°26' E 003°37'510.3
2018-Mar-23 17:00N 51°23' E 003°43'611.1
2018-Mar-23 16:30N 51°21' E 003°52'510.1
2018-Mar-23 16:00N 51°24' E 003°57'3 6.1
2018-Mar-23 15:30N 51°24' E 004°02'5 9.5
2018-Mar-23 15:00N 51°23' E 004°10'4 8.3
2018-Mar-23 14:30N 51°21' E 004°15'3 5.2
2018-Mar-23 13:57N 51°18' E 004°16'1 2.2
2018-Mar-23 13:29N 51°17' E 004°15'0 0.1
2018-Mar-23 12:59N 51°17' E 004°15'0 0.0
2018-Mar-23 12:29N 51°17' E 004°15'0 0.0
2018-Mar-23 11:53N 51°17' E 004°15'0 0.0
2018-Mar-23 11:26N 51°17' E 004°15'0 0.0
2018-Mar-23 10:59N 51°17' E 004°15'0 0.0
2018-Mar-23 10:29N 51°17' E 004°15'0 0.0
2018-Mar-23 09:59N 51°17' E 004°15'0 0.0
2018-Mar-23 09:29N 51°17' E 004°15'0 0.0
2018-Mar-23 08:56N 51°17' E 004°15'0 0.0
2018-Mar-23 08:29N 51°17' E 004°15'0 0.0
2018-Mar-23 07:59N 51°17' E 004°15'0 0.0
2018-Mar-23 07:26N 51°17' E 004°15'0 0.0
2018-Mar-23 06:59N 51°17' E 004°15'0 0.0
2018-Mar-23 06:29N 51°17' E 004°15'0 0.0
2018-Mar-23 05:59N 51°17' E 004°15'0 0.0
2018-Mar-23 05:29N 51°17' E 004°15'0 0.0
2018-Mar-23 04:59N 51°17' E 004°15'0 0.0
2018-Mar-23 04:29N 51°17' E 004°15'0 0.0
2018-Mar-23 03:59N 51°17' E 004°15'0 0.0
2018-Mar-23 03:29N 51°17' E 004°15'0 0.0
2018-Mar-23 02:59N 51°17' E 004°15'0 0.0
2018-Mar-23 02:29N 51°17' E 004°15'0 0.0
2018-Mar-23 01:59N 51°17' E 004°15'0 0.0
2018-Mar-23 01:29N 51°17' E 004°15'0 0.0
2018-Mar-23 00:59N 51°17' E 004°15'0 0.0
2018-Mar-23 00:29N 51°17' E 004°15'0 0.0
2018-Mar-22 23:59N 51°17' E 004°15'0 0.0
2018-Mar-22 23:29N 51°17' E 004°15'0 0.0
2018-Mar-22 22:59N 51°17' E 004°15'0 0.0
2018-Mar-22 22:29N 51°17' E 004°15'0 0.0
2018-Mar-22 21:59N 51°17' E 004°15'0 0.0
2018-Mar-22 21:29N 51°17' E 004°15'0 0.0
2018-Mar-22 20:56N 51°17' E 004°15'0 0.0
2018-Mar-22 20:29N 51°17' E 004°15'0 0.0
2018-Mar-22 19:59N 51°17' E 004°15'0 0.0
2018-Mar-22 19:29N 51°17' E 004°15'0 0.0
2018-Mar-22 18:59N 51°17' E 004°15'0 0.0
2018-Mar-22 18:29N 51°17' E 004°15'0 0.0
2018-Mar-22 17:59N 51°17' E 004°15'0 0.0
2018-Mar-22 17:29N 51°17' E 004°15'0 0.0
2018-Mar-22 16:59N 51°17' E 004°15'0 0.0
2018-Mar-22 16:29N 51°17' E 004°15'0 0.0
2018-Mar-22 15:58N 51°17' E 004°15'0 0.0
2018-Mar-22 15:28N 51°17' E 004°15'0 0.0
2018-Mar-22 14:58N 51°17' E 004°15'0 0.0
2018-Mar-22 14:22N 51°17' E 004°15'0 0.0
2018-Mar-22 13:58N 51°17' E 004°15'0 0.0
2018-Mar-22 13:28N 51°17' E 004°15'0 0.0
2018-Mar-22 12:59N 51°17' E 004°15'0 0.0
2018-Mar-22 12:29N 51°17' E 004°15'0 0.0
2018-Mar-22 11:59N 51°17' E 004°15'0 0.0
2018-Mar-22 11:29N 51°17' E 004°15'0 0.0
2018-Mar-22 10:59N 51°17' E 004°15'0 0.0
2018-Mar-22 10:26N 51°17' E 004°15'0 0.0
2018-Mar-22 10:00N 51°17' E 004°15'0 0.0
2018-Mar-22 09:30N 51°17' E 004°15'0 0.0
2018-Mar-22 09:00N 51°17' E 004°15'0 0.0
2018-Mar-22 08:30N 51°17' E 004°15'0 0.0
2018-Mar-22 08:00N 51°17' E 004°15'0 0.0
2018-Mar-22 07:27N 51°17' E 004°15'0 0.0
2018-Mar-22 06:59N 51°17' E 004°15'0 0.0
2018-Mar-22 06:29N 51°17' E 004°15'0 0.0
2018-Mar-22 06:00N 51°17' E 004°15'0 0.0
2018-Mar-22 05:30N 51°17' E 004°15'0 0.0
2018-Mar-22 05:00N 51°17' E 004°15'0 0.0
2018-Mar-22 04:30N 51°17' E 004°15'0 0.0
2018-Mar-22 03:57N 51°17' E 004°15'0 0.0
2018-Mar-22 03:30N 51°17' E 004°15'1 1.7
2018-Mar-22 03:00N 51°18' E 004°16'3 6.9
2018-Mar-22 02:30N 51°21' E 004°14'4 8.4
2018-Mar-22 02:00N 51°22' E 004°08'510.7
2018-Mar-22 01:30N 51°26' E 004°01'713.0
2018-Mar-22 01:01N 51°21' E 003°54'612.6
2018-Mar-22 00:30N 51°23' E 003°44'611.0
2018-Mar-22 00:00N 51°26' E 003°37'611.5
2018-Mar-21 23:30N 51°25' E 003°28'713.9
2018-Mar-21 23:01N 51°24' E 003°17'713.1
2018-Mar-21 22:31N 51°24' E 003°06'713.4
2018-Mar-21 22:00N 51°25' E 002°55'612.4
2018-Mar-21 21:30N 51°24' E 002°46'3 7.0
2018-Mar-21 21:00N 51°22' E 002°41'2 4.2
2018-Mar-21 20:29N 51°24' E 002°39'1 0.9
2018-Mar-21 19:51N 51°25' E 002°39'0 0.0
2018-Mar-21 19:29N 51°25' E 002°39'0 0.0
2018-Mar-21 19:00N 51°25' E 002°39'0 0.0
2018-Mar-21 18:29N 51°25' E 002°39'0 0.0
2018-Mar-21 17:53N 51°25' E 002°39'0 0.0
2018-Mar-21 17:29N 51°25' E 002°39'0 0.0
2018-Mar-21 17:00N 51°25' E 002°39'0 0.0
2018-Mar-21 16:27N 51°25' E 002°39'0 0.0
2018-Mar-21 15:59N 51°25' E 002°39'0 0.0
2018-Mar-21 15:30N 51°25' E 002°39'0 0.0
2018-Mar-21 15:00N 51°25' E 002°39'0 0.1
2018-Mar-21 14:26N 51°25' E 002°39'0 0.1
2018-Mar-21 13:54N 51°25' E 002°40'0 0.1
2018-Mar-21 13:30N 51°25' E 002°40'0 0.2
2018-Mar-21 13:00N 51°24' E 002°39'0 0.2
2018-Mar-21 12:30N 51°24' E 002°39'0 0.1
2018-Mar-21 12:00N 51°24' E 002°39'0 0.0
2018-Mar-21 11:22N 51°24' E 002°39'0 0.0
2018-Mar-21 10:58N 51°24' E 002°39'0 0.0
2018-Mar-21 10:29N 51°24' E 002°39'0 0.0
2018-Mar-21 10:00N 51°24' E 002°39'0 0.0
2018-Mar-21 09:30N 51°24' E 002°39'0 0.0
2018-Mar-21 09:00N 51°24' E 002°39'0 0.1
2018-Mar-21 08:30N 51°25' E 002°39'0 0.1
2018-Mar-21 07:58N 51°24' E 002°39'0 0.3
2018-Mar-21 07:20N 51°25' E 002°40'0 0.2
2018-Mar-21 06:59N 51°25' E 002°40'0 0.1
2018-Mar-21 06:26N 51°25' E 002°40'0 0.0
2018-Mar-21 06:00N 51°25' E 002°40'0 0.0
2018-Mar-21 05:23N 51°25' E 002°40'0 0.0
2018-Mar-21 04:51N 51°25' E 002°40'0 0.0
2018-Mar-21 04:21N 51°25' E 002°40'0 0.0
2018-Mar-21 03:59N 51°25' E 002°40'0 0.0
2018-Mar-21 03:30N 51°25' E 002°40'0 0.0
2018-Mar-21 03:00N 51°25' E 002°40'0 0.1
2018-Mar-21 02:28N 51°25' E 002°40'0 0.3
2018-Mar-21 02:00N 51°24' E 002°40'0 0.3
2018-Mar-21 01:27N 51°24' E 002°39'0 0.0
2018-Mar-21 00:57N 51°24' E 002°39'0 0.2
2018-Mar-21 00:26N 51°24' E 002°39'0 0.0
2018-Mar-20 23:59N 51°24' E 002°39'0 0.0
2018-Mar-20 23:30N 51°24' E 002°39'0 0.0
2018-Mar-20 23:00N 51°24' E 002°39'0 0.0
2018-Mar-20 22:30N 51°24' E 002°39'0 0.0
2018-Mar-20 22:00N 51°24' E 002°39'0 0.0
2018-Mar-20 21:30N 51°24' E 002°39'0 0.0
2018-Mar-20 20:58N 51°24' E 002°39'0 0.0
2018-Mar-20 20:22N 51°24' E 002°39'0 0.0
2018-Mar-20 20:00N 51°24' E 002°39'0 0.1
2018-Mar-20 19:29N 51°24' E 002°39'0 0.1
2018-Mar-20 18:56N 51°24' E 002°39'0 0.1
2018-Mar-20 18:23N 51°24' E 002°39'0 0.4
2018-Mar-20 18:00N 51°24' E 002°40'0 0.2
2018-Mar-20 17:27N 51°25' E 002°40'0 0.1
2018-Mar-20 17:00N 51°25' E 002°40'0 0.1
2018-Mar-20 16:27N 51°25' E 002°40'0 0.1
2018-Mar-20 15:59N 51°25' E 002°40'0 0.1
2018-Mar-20 15:28N 51°25' E 002°40'0 0.1
2018-Mar-20 14:58N 51°24' E 002°39'0 0.1
2018-Mar-20 14:30N 51°24' E 002°39'0 0.1
2018-Mar-20 13:59N 51°24' E 002°39'0 0.1
2018-Mar-20 13:30N 51°24' E 002°39'0 0.0
2018-Mar-20 12:56N 51°24' E 002°39'0 0.1
2018-Mar-20 12:29N 51°24' E 002°39'0 0.0
2018-Mar-20 11:59N 51°24' E 002°39'0 0.0
2018-Mar-20 11:30N 51°24' E 002°39'0 0.0
2018-Mar-20 11:00N 51°24' E 002°39'0 0.0
2018-Mar-20 10:26N 51°24' E 002°39'0 0.0
2018-Mar-20 10:00N 51°24' E 002°39'0 0.0
2018-Mar-20 09:30N 51°24' E 002°39'0 0.0
2018-Mar-20 08:59N 51°24' E 002°39'0 0.2
2018-Mar-20 08:30N 51°24' E 002°39'2 3.9
2018-Mar-20 07:58N 51°24' E 002°36'3 6.7
2018-Mar-20 07:30N 51°22' E 002°32'4 7.5
2018-Mar-20 07:00N 51°21' E 002°26'4 8.3
2018-Mar-20 06:30N 51°19' E 002°20'4 8.9
2018-Mar-20 06:00N 51°17' E 002°14'5 9.6
2018-Mar-20 05:30N 51°15' E 002°07'5 9.8
2018-Mar-20 05:00N 51°12' E 002°00'510.0
2018-Mar-20 04:30N 51°09' E 001°54'510.2
2018-Mar-20 04:00N 51°06' E 001°47'611.0
2018-Mar-20 03:30N 51°02' E 001°42'611.8
2018-Mar-20 03:00N 50°58' E 001°35'611.5
2018-Mar-20 02:27N 50°53' E 001°29'510.9
2018-Mar-20 02:00N 50°48' E 001°26'510.8
2018-Mar-20 01:30N 50°43' E 001°23'710.2
2018-Mar-20 00:50N 50°38' E 001°17'510.1
2018-Mar-20 00:23N 50°35' E 001°11'710.3
2018-Mar-19 23:45N 50°31' E 001°03'10 9.8
2018-Mar-19 22:43N 50°27' E 000°48'210.3
2018-Mar-19 22:30N 50°27' E 000°45'510.3
2018-Mar-19 21:58N 50°25' E 000°37'710.1
2018-Mar-19 21:17N 50°23' E 000°26'3 9.8
2018-Mar-19 21:01N 50°22' E 000°22'5 9.5
2018-Mar-19 20:30N 50°21' E 000°15'5 9.0
2018-Mar-19 20:00N 50°20' E 000°08'4 8.5
2018-Mar-19 19:30N 50°19' E 000°02'5 9.2
2018-Mar-19 19:00N 50°18' W 000°05'510.8
2018-Mar-19 18:30N 50°16' W 000°13'510.5
2018-Mar-19 18:00N 50°15' W 000°21'510.2
2018-Mar-19 17:28N 50°13' W 000°29'5 9.8
2018-Mar-19 16:55N 50°12' W 000°38'4 9.6
2018-Mar-19 16:30N 50°11' W 000°44'5 9.1
2018-Mar-19 15:59N 50°10' W 000°51'4 8.8
2018-Mar-19 15:30N 50°09' W 000°57'4 8.3
2018-Mar-19 15:00N 50°08' W 001°04'4 8.1
2018-Mar-19 14:30N 50°07' W 001°10'4 8.5
2018-Mar-19 14:01N 50°06' W 001°16'4 8.9
2018-Mar-19 13:30N 50°05' W 001°23'5 9.5
2018-Mar-19 13:00N 50°04' W 001°30'510.3
2018-Mar-19 12:29N 50°02' W 001°38'511.1
2018-Mar-19 12:00N 50°01' W 001°46'611.9
2018-Mar-19 11:30N 50°00' W 001°55'612.7
2018-Mar-19 11:00N 49°59' W 002°05'713.2
2018-Mar-19 10:30N 49°57' W 002°15'813.4
2018-Mar-19 09:52N 49°55' W 002°28'613.2
2018-Mar-19 09:25N 49°54' W 002°37'513.0
2018-Mar-19 09:00N 49°52' W 002°45'612.9
2018-Mar-19 08:30N 49°51' W 002°55'612.7
2018-Mar-19 08:00N 49°49' W 003°04'612.7
2018-Mar-19 07:30N 49°48' W 003°14'712.6
2018-Mar-19 06:58N 49°46' W 003°24'812.5
2018-Mar-19 06:21N 49°45' W 003°36'7712.1
2018-Mar-19 00:00N 49°24' W 005°30'8814.6 050 / 401004.8 2.2 6.5 3.310.0
2018-Mar-18 18:00N 48°54' W 007°36'10417.3 350 / 131007.110.8 9.1 2.210.0
2018-Mar-18 12:00N 48°24' W 010°06'9515.8 360 / 221009.210.8 8.9-2.711.0
2018-Mar-18 06:00N 48°00' W 012°24'20417.0 040 / 141007.810.8 10.8 2.112.0
2018-Mar-17 18:00N 47°00' W 017°12'9916.5 010 / 71005.710.8 16.0 6.212.0
2018-Mar-17 12:00N 46°30' W 019°30'20517.1 180 / 51003.410.8 14.3 0.913.0
2018-Mar-17 00:00N 45°30' W 024°12'9215.3 180 / 101003.7 11.0 2.613.0
2018-Mar-16 18:00N 45°06' W 026°18'9415.7 1005.810.8 13.2 4.214.0
2018-Mar-16 12:00N 44°36' W 028°24'   290 / 71009.810.8 13.7 6.514.0

Dump ship's entire track history